Ikermiuarsuk

KL  EN  DA
ASIAQ
Weather Now GREENLAND SURVEY
Updated [WGT/WGST] Temperature [°C] Wind [m/s] Air pressure [hPa] Relative humidity [%] Precipitation [mm]
Present Wind chill Speed Max
21.01 18:00-5,7-12,86,2 ⇓8,299251n/a
21.01 17:00-4,9-8,32,1 ⇓3,699245n/a
21.01 16:00-4,8-12,98,8 ⇓12,499240n/a
21.01 15:00-5,2-14,411,3 ⇓14,499145n/a
21.01 14:00-5,1-15,314,9 ⇓18,599144n/a
21.01 13:00-5,2-15,213,9 ⇓17,599046n/a
21.01 12:00-5,4-15,513,9 ⇓18,099047n/a
21.01 11:00-5,5-16,216,0 ⇓20,699047n/a
21.01 10:00-5,6-15,312,4 ⇓16,599046n/a
21.01 09:00-6,1-14,38,2 ⇓13,999050n/a
21.01 08:00-6,4-15,49,8 ⇓13,498954n/a
21.01 07:00-5,9-14,18,2 ⇓13,999050n/a
21.01 06:00-6,5-18,017,5 ⇓23,798856n/a
21.01 05:00-6,9-19,120,1 ⇓26,898759n/a
21.01 04:00-7,1-20,022,7 ⇓29,398662n/a
21.01 03:00-6,5-19,725,7 ⇓30,998458n/a
21.01 02:00-6,3-18,923,2 ⇓30,998456n/a
21.01 01:00-6,3-18,521,1 ⇓25,798450n/a
21.01 00:00-6,3-17,918,5 ⇓24,298353n/a
20.01 23:00-6,8-17,714,9 ⇓20,198357n/a
20.01 22:00-6,1-16,012,4 ⇓16,098349n/a
20.01 21:00-6,4-15,810,8 ⇓13,998346n/a
20.01 20:00-5,4-10,63,6 ⇓9,898233n/a
20.01 19:00-5,9-14,48,8 ⇓12,498346n/a
20.01 18:00-5,3-12,36,2 ⇓7,798353n/a
Position: (61.9363888888,-42.0677777777)

[Back]